createdAt,value
2023-04-27T00:01:12.521Z,100293.77
2023-04-27T00:03:40.858Z,100295.73
2023-04-27T00:06:09.244Z,100294.74
2023-04-27T00:08:36.237Z,100292.89
2023-04-27T00:11:03.134Z,100296.80
2023-04-27T00:13:29.957Z,100289.31
2023-04-27T00:15:56.876Z,100292.34
2023-04-27T00:18:23.554Z,100292.62
2023-04-27T00:20:50.449Z,100295.63
2023-04-27T00:23:17.369Z,100298.42
2023-04-27T00:25:44.160Z,100294.67
2023-04-27T00:28:10.890Z,100297.12
2023-04-27T00:30:37.738Z,100299.95
2023-04-27T00:33:05.394Z,100297.80
2023-04-27T00:35:33.072Z,100298.65
2023-04-27T00:38:00.024Z,100298.17
2023-04-27T00:40:26.716Z,100296.45
2023-04-27T00:42:53.377Z,100295.24
2023-04-27T00:45:20.194Z,100295.57
2023-04-27T00:47:47.007Z,100297.96
2023-04-27T00:50:14.075Z,100300.14
2023-04-27T00:52:41.346Z,100296.98
2023-04-27T00:55:09.122Z,100298.53
2023-04-27T00:57:35.831Z,100298.86
2023-04-27T01:00:06.245Z,100299.17
2023-04-27T01:02:34.405Z,100302.50
2023-04-27T01:05:02.483Z,100300.64
2023-04-27T01:07:29.376Z,100304.63
2023-04-27T01:09:56.113Z,100307.10
2023-04-27T01:12:22.793Z,100308.85
2023-04-27T01:14:49.559Z,100310.63
2023-04-27T01:17:17.729Z,100305.95
2023-04-27T01:19:44.572Z,100312.07
2023-04-27T01:22:11.504Z,100309.77
2023-04-27T01:24:38.243Z,100313.38
2023-04-27T01:27:05.106Z,100309.70
2023-04-27T01:29:32.164Z,100311.89
2023-04-27T01:31:59.028Z,100310.96
2023-04-27T01:34:25.766Z,100312.08
2023-04-27T01:36:52.496Z,100313.91
2023-04-27T01:39:19.213Z,100314.08
2023-04-27T01:41:45.914Z,100314.25
2023-04-27T01:44:12.673Z,100311.40
2023-04-27T01:46:39.453Z,100312.92
2023-04-27T01:49:06.699Z,100315.08
2023-04-27T01:51:33.440Z,100316.59
2023-04-27T01:54:00.202Z,100317.79
2023-04-27T01:56:26.894Z,100321.43
2023-04-27T01:58:53.657Z,100322.70
2023-04-27T02:01:20.477Z,100321.80
2023-04-27T02:03:47.360Z,100325.82
2023-04-27T02:06:14.424Z,100322.69
2023-04-27T02:08:41.130Z,100323.70
2023-04-27T02:11:08.317Z,100327.08
2023-04-27T02:13:35.290Z,100328.69
2023-04-27T02:16:04.254Z,100327.77
2023-04-27T02:18:35.756Z,100330.46
2023-04-27T02:21:08.790Z,100331.34
2023-04-27T02:23:36.298Z,100332.41
2023-04-27T02:26:04.544Z,100330.98
2023-04-27T02:28:31.790Z,100335.14
2023-04-27T02:30:58.970Z,100331.48
2023-04-27T02:33:25.769Z,100337.69
2023-04-27T02:35:52.626Z,100340.62
2023-04-27T02:38:19.449Z,100340.95
2023-04-27T02:40:46.126Z,100340.42
2023-04-27T02:43:12.798Z,100340.30
2023-04-27T02:45:39.516Z,100334.89
2023-04-27T02:48:06.497Z,100341.73
2023-04-27T02:50:33.179Z,100339.20
2023-04-27T02:52:59.914Z,100345.42
2023-04-27T02:55:27.041Z,100341.63
2023-04-27T02:57:53.786Z,100345.99
2023-04-27T03:00:20.623Z,100342.70
2023-04-27T03:02:47.405Z,100340.27
2023-04-27T03:05:14.136Z,100348.03
2023-04-27T03:07:41.485Z,100348.61
2023-04-27T03:10:08.759Z,100351.09
2023-04-27T03:12:35.500Z,100350.66
2023-04-27T03:15:02.693Z,100349.46
2023-04-27T03:17:29.377Z,100352.75
2023-04-27T03:19:56.284Z,100354.48
2023-04-27T03:22:23.226Z,100352.27
2023-04-27T03:24:50.171Z,100355.34
2023-04-27T03:27:16.955Z,100354.96
2023-04-27T03:29:43.600Z,100358.00
2023-04-27T03:32:10.468Z,100357.41
2023-04-27T03:34:37.353Z,100362.64
2023-04-27T03:37:04.138Z,100364.91
2023-04-27T03:39:30.827Z,100368.92
2023-04-27T03:41:57.497Z,100368.20
2023-04-27T03:44:24.250Z,100371.27
2023-04-27T03:46:50.908Z,100374.34
2023-04-27T03:49:17.646Z,100376.18
2023-04-27T03:51:44.971Z,100378.52
2023-04-27T03:54:11.802Z,100378.42
2023-04-27T03:56:38.576Z,100384.02
2023-04-27T03:59:05.308Z,100390.17
2023-04-27T04:01:33.428Z,100390.69
2023-04-27T04:04:00.340Z,100388.98
2023-04-27T04:06:27.819Z,100390.36
2023-04-27T04:08:55.402Z,100393.81
2023-04-27T04:11:22.149Z,100399.80
2023-04-27T04:13:49.255Z,100397.34
2023-04-27T04:16:16.041Z,100400.48
2023-04-27T04:18:42.905Z,100407.88
2023-04-27T04:21:10.726Z,100410.96
2023-04-27T04:23:40.471Z,100414.64
2023-04-27T04:26:08.242Z,100415.73
2023-04-27T04:28:35.258Z,100418.95
2023-04-27T04:31:02.816Z,100417.55
2023-04-27T04:33:30.642Z,100414.44
2023-04-27T04:35:58.254Z,100419.39
2023-04-27T04:38:24.984Z,100415.52
2023-04-27T04:40:52.379Z,100415.62
2023-04-27T04:43:19.167Z,100418.82
2023-04-27T04:45:46.331Z,100417.16
2023-04-27T04:48:17.094Z,100420.98
2023-04-27T04:50:43.866Z,100419.64
2023-04-27T04:53:10.541Z,100419.42
2023-04-27T04:55:37.231Z,100422.92
2023-04-27T04:58:03.972Z,100422.95
2023-04-27T05:00:30.749Z,100422.95
2023-04-27T05:02:58.090Z,100424.42
2023-04-27T05:05:25.519Z,100425.18
2023-04-27T05:07:52.155Z,100425.91
2023-04-27T05:10:18.790Z,100428.81
2023-04-27T05:12:45.623Z,100426.81
2023-04-27T05:15:12.352Z,100429.20
2023-04-27T05:17:39.058Z,100432.13
2023-04-27T05:20:07.287Z,100428.98
2023-04-27T05:22:33.955Z,100434.22
2023-04-27T05:25:00.781Z,100432.55
2023-04-27T05:27:27.641Z,100431.41
2023-04-27T05:29:54.280Z,100428.80
2023-04-27T05:32:20.918Z,100431.93
2023-04-27T05:34:49.483Z,100432.48
2023-04-27T05:37:16.433Z,100431.36
2023-04-27T05:39:43.083Z,100433.29
2023-04-27T05:42:09.958Z,100433.62
2023-04-27T05:44:36.674Z,100434.66
2023-04-27T05:47:03.452Z,100431.44
2023-04-27T05:49:30.472Z,100438.00
2023-04-27T05:51:58.531Z,100438.66
2023-04-27T05:54:26.955Z,100437.46
2023-04-27T05:56:53.869Z,100439.78
2023-04-27T05:59:21.421Z,100442.73
2023-04-27T06:01:48.172Z,100438.98
2023-04-27T06:04:15.309Z,100443.34
2023-04-27T06:06:42.415Z,100440.32
2023-04-27T06:09:09.141Z,100446.55
2023-04-27T06:11:36.274Z,100445.69
2023-04-27T06:14:03.059Z,100445.92
2023-04-27T06:16:30.034Z,100450.12
2023-04-27T06:18:56.992Z,100443.73
2023-04-27T06:21:23.813Z,100446.58
2023-04-27T06:23:50.781Z,100442.77
2023-04-27T06:26:17.438Z,100443.89
2023-04-27T06:28:44.263Z,100445.67
2023-04-27T06:31:11.026Z,100447.55
2023-04-27T06:33:38.225Z,100443.73
2023-04-27T06:36:05.777Z,100447.75
2023-04-27T06:38:32.438Z,100440.79
2023-04-27T06:40:59.198Z,100443.11
2023-04-27T06:43:26.198Z,100441.50
2023-04-27T06:45:52.943Z,100440.73
2023-04-27T06:48:19.745Z,100441.08
2023-04-27T06:50:47.622Z,100442.54
2023-04-27T06:53:16.333Z,100443.98
2023-04-27T06:55:45.576Z,100442.45
2023-04-27T06:58:16.493Z,100445.06
2023-04-27T07:00:43.310Z,100442.00
2023-04-27T07:03:10.372Z,100438.89
2023-04-27T07:05:37.420Z,100446.46
2023-04-27T07:08:07.242Z,100444.54
2023-04-27T07:10:35.795Z,100442.85
2023-04-27T07:13:02.649Z,100440.77
2023-04-27T07:15:31.002Z,100448.14
2023-04-27T07:17:57.698Z,100443.24
2023-04-27T07:20:24.803Z,100449.84
2023-04-27T07:22:51.508Z,100454.86
2023-04-27T07:25:19.170Z,100458.64
2023-04-27T07:27:46.404Z,100461.80
2023-04-27T07:30:13.907Z,100462.10
2023-04-27T07:32:41.382Z,100462.27
2023-04-27T07:35:09.221Z,100462.83
2023-04-27T07:37:39.844Z,100457.66
2023-04-27T07:40:13.899Z,100457.42
2023-04-27T07:42:41.596Z,100461.09
2023-04-27T07:45:09.170Z,100465.92
2023-04-27T07:47:36.647Z,100464.54
2023-04-27T07:50:04.166Z,100466.02
2023-04-27T07:52:30.948Z,100472.80
2023-04-27T07:54:57.733Z,100467.02
2023-04-27T07:57:24.716Z,100471.18
2023-04-27T07:59:51.461Z,100472.33
2023-04-27T08:02:20.017Z,100476.58
2023-04-27T08:04:49.449Z,100472.89
2023-04-27T08:07:17.496Z,100480.05
2023-04-27T08:09:44.574Z,100479.70
2023-04-27T08:12:11.410Z,100484.23
2023-04-27T08:14:38.103Z,100484.10
2023-04-27T08:17:05.025Z,100487.73
2023-04-27T08:19:31.872Z,100491.87
2023-04-27T08:21:58.551Z,100490.06
2023-04-27T08:24:25.429Z,100492.27
2023-04-27T08:26:52.243Z,100492.80
2023-04-27T08:29:27.790Z,100495.39
2023-04-27T08:31:59.334Z,100492.88
2023-04-27T08:34:27.219Z,100486.90
2023-04-27T08:36:54.371Z,100485.91
2023-04-27T08:39:21.158Z,100479.90
2023-04-27T08:41:47.892Z,100479.86
2023-04-27T08:44:14.776Z,100482.98
2023-04-27T08:46:41.940Z,100478.59
2023-04-27T08:49:09.341Z,100478.51
2023-04-27T08:51:36.181Z,100484.70
2023-04-27T08:54:03.047Z,100486.25
2023-04-27T08:56:30.804Z,100484.50
2023-04-27T08:59:01.118Z,100486.56
2023-04-27T09:01:28.126Z,100489.16
2023-04-27T09:04:00.241Z,100491.77
2023-04-27T09:06:32.201Z,100494.14
2023-04-27T09:09:00.323Z,100493.21
2023-04-27T09:11:33.361Z,100491.36
2023-04-27T09:14:02.778Z,100493.39
2023-04-27T09:16:30.906Z,100494.84
2023-04-27T09:18:59.334Z,100489.63
2023-04-27T09:21:33.286Z,100488.65
2023-04-27T09:24:10.630Z,100488.98
2023-04-27T09:26:37.413Z,100484.22
2023-04-27T09:29:04.277Z,100489.99
2023-04-27T09:31:32.504Z,100489.48
2023-04-27T09:33:59.744Z,100488.05
2023-04-27T09:36:26.820Z,100484.84
2023-04-27T09:38:53.579Z,100483.15
2023-04-27T09:41:21.343Z,100478.89
2023-04-27T09:43:48.297Z,100475.50
2023-04-27T09:46:15.528Z,100474.89
2023-04-27T09:48:42.696Z,100475.02
2023-04-27T09:51:09.454Z,100473.17
2023-04-27T09:53:56.282Z,100467.45
2023-04-27T09:56:50.966Z,100478.59
2023-04-27T09:59:26.790Z,100475.98
2023-04-27T10:02:00.075Z,100471.97
2023-04-27T10:04:49.478Z,100477.24
2023-04-27T10:07:17.174Z,100484.23
2023-04-27T10:09:49.285Z,100479.92
2023-04-27T10:12:35.691Z,100484.11
2023-04-27T10:15:17.185Z,100482.52
2023-04-27T10:17:50.253Z,100488.40
2023-04-27T10:20:17.161Z,100489.24
2023-04-27T10:22:51.973Z,100485.40
2023-04-27T10:25:21.520Z,100487.48
2023-04-27T10:27:51.342Z,100488.48
2023-04-27T10:30:19.955Z,100489.69
2023-04-27T10:32:57.971Z,100490.35
2023-04-27T10:35:36.783Z,100494.65
2023-04-27T10:38:18.478Z,100493.92
2023-04-27T10:40:57.336Z,100493.53
2023-04-27T10:43:29.240Z,100495.91
2023-04-27T10:46:11.316Z,100495.23
2023-04-27T10:48:42.890Z,100495.50
2023-04-27T10:51:10.315Z,100497.48
2023-04-27T10:53:37.414Z,100497.89
2023-04-27T10:56:07.582Z,100502.96
2023-04-27T10:58:48.293Z,100506.25
2023-04-27T11:01:26.273Z,100508.45
2023-04-27T11:04:00.782Z,100505.95
2023-04-27T11:06:29.843Z,100514.95
2023-04-27T11:08:56.534Z,100514.70
2023-04-27T11:11:23.822Z,100520.72
2023-04-27T11:13:55.171Z,100514.32
2023-04-27T11:16:22.597Z,100515.77
2023-04-27T11:18:49.689Z,100509.54
2023-04-27T11:21:19.980Z,100511.03
2023-04-27T11:23:47.288Z,100508.42
2023-04-27T11:26:22.076Z,100507.67
2023-04-27T11:29:06.060Z,100504.18
2023-04-27T11:31:48.460Z,100507.13
2023-04-27T11:34:16.757Z,100506.68
2023-04-27T11:36:44.040Z,100518.78
2023-04-27T11:39:22.279Z,100523.36
2023-04-27T11:41:49.104Z,100526.88
2023-04-27T11:44:15.841Z,100530.55
2023-04-27T11:46:46.935Z,100533.86
2023-04-27T11:49:14.868Z,100537.33
2023-04-27T11:51:44.394Z,100542.91
2023-04-27T11:54:12.216Z,100549.16
2023-04-27T11:56:42.140Z,100561.15
2023-04-27T11:59:27.070Z,100560.77
2023-04-27T12:01:54.179Z,100559.17
2023-04-27T12:04:21.164Z,100558.18
2023-04-27T12:06:48.334Z,100562.70
2023-04-27T12:09:16.867Z,100561.70
2023-04-27T12:11:44.087Z,100566.42
2023-04-27T12:14:10.805Z,100565.86
2023-04-27T12:16:37.829Z,100562.15
2023-04-27T12:19:04.831Z,100560.50
2023-04-27T12:21:31.705Z,100565.11
2023-04-27T12:23:58.578Z,100553.66
2023-04-27T12:26:25.970Z,100554.49
2023-04-27T12:28:53.214Z,100550.45
2023-04-27T12:31:26.055Z,100546.54
2023-04-27T12:33:54.396Z,100543.55
2023-04-27T12:36:21.201Z,100538.45
2023-04-27T12:38:47.873Z,100537.04
2023-04-27T12:41:14.550Z,100539.13
2023-04-27T12:43:43.356Z,100534.92
2023-04-27T12:46:11.024Z,100542.05
2023-04-27T12:48:37.962Z,100539.02
2023-04-27T12:51:06.282Z,100538.49
2023-04-27T12:53:32.960Z,100537.73
2023-04-27T12:56:01.413Z,100537.52
2023-04-27T12:58:28.249Z,100546.11
2023-04-27T13:00:57.241Z,100557.91
2023-04-27T13:03:24.553Z,100572.90
2023-04-27T13:05:51.592Z,100585.87
2023-04-27T13:08:18.408Z,100602.16
2023-04-27T13:10:45.133Z,100593.85
2023-04-27T13:13:11.978Z,100585.98
2023-04-27T13:15:38.810Z,100576.85
2023-04-27T13:18:06.045Z,100575.99
2023-04-27T13:20:32.939Z,100576.39
2023-04-27T13:22:59.654Z,100570.30
2023-04-27T13:25:26.543Z,100572.28
2023-04-27T13:28:41.761Z,100572.67
2023-04-27T13:31:09.388Z,100571.32
2023-04-27T13:33:43.923Z,100568.13
2023-04-27T13:36:12.232Z,100571.10
2023-04-27T13:38:39.310Z,100571.14
2023-04-27T13:41:06.327Z,100565.91
2023-04-27T13:43:33.168Z,100563.60
2023-04-27T13:46:01.382Z,100561.29
2023-04-27T13:48:29.855Z,100561.45
2023-04-27T13:50:57.350Z,100555.86
2023-04-27T13:53:25.170Z,100546.41
2023-04-27T13:55:53.511Z,100548.63
2023-04-27T13:58:20.487Z,100555.63
2023-04-27T14:00:47.897Z,100555.02
2023-04-27T14:03:18.150Z,100554.05
2023-04-27T14:05:47.675Z,100551.23
2023-04-27T14:08:14.388Z,100556.85
2023-04-27T14:10:41.168Z,100557.41
2023-04-27T14:13:08.060Z,100563.73
2023-04-27T14:15:37.465Z,100566.02
2023-04-27T14:18:05.661Z,100571.57
2023-04-27T14:20:34.092Z,100570.67
2023-04-27T14:23:01.531Z,100564.92
2023-04-27T14:25:32.298Z,100570.19
2023-04-27T14:28:03.667Z,100571.58
2023-04-27T14:30:34.392Z,100578.98
2023-04-27T14:33:01.613Z,100576.75
2023-04-27T14:35:28.436Z,100575.67
2023-04-27T14:37:56.479Z,100575.91
2023-04-27T14:40:23.309Z,100571.42
2023-04-27T14:42:50.108Z,100568.33
2023-04-27T14:45:18.269Z,100566.66
2023-04-27T14:47:45.102Z,100570.39
2023-04-27T14:50:12.455Z,100567.80
2023-04-27T14:52:39.308Z,100563.30
2023-04-27T14:55:06.738Z,100572.10
2023-04-27T14:57:33.729Z,100572.92
2023-04-27T15:00:00.623Z,100577.30
2023-04-27T15:02:27.579Z,100573.80
2023-04-27T15:04:54.524Z,100573.79
2023-04-27T15:07:21.469Z,100577.95
2023-04-27T15:09:48.315Z,100585.32
2023-04-27T15:12:15.123Z,100583.95
2023-04-27T15:14:41.824Z,100588.89
2023-04-27T15:17:08.638Z,100605.59
2023-04-27T15:19:35.569Z,100604.48
2023-04-27T15:22:02.263Z,100604.48
2023-04-27T15:24:29.206Z,100607.01
2023-04-27T15:26:55.896Z,100606.92
2023-04-27T15:29:23.134Z,100602.34
2023-04-27T15:31:50.440Z,100599.56
2023-04-27T15:34:17.273Z,100599.27
2023-04-27T15:36:43.969Z,100599.83
2023-04-27T15:39:10.823Z,100600.05
2023-04-27T15:41:37.590Z,100599.08
2023-04-27T15:44:05.036Z,100595.98
2023-04-27T15:46:32.355Z,100596.06
2023-04-27T15:48:59.111Z,100597.58
2023-04-27T15:51:26.227Z,100600.98
2023-04-27T15:53:53.050Z,100599.32
2023-04-27T15:56:19.754Z,100596.76
2023-04-27T15:58:46.404Z,100590.34
2023-04-27T16:01:13.251Z,100589.17
2023-04-27T16:03:40.412Z,100589.74
2023-04-27T16:06:07.544Z,100587.67
2023-04-27T16:08:34.509Z,100582.45
2023-04-27T16:11:01.422Z,100590.16
2023-04-27T16:13:28.515Z,100586.65
2023-04-27T16:15:55.546Z,100587.86
2023-04-27T16:18:22.606Z,100591.27
2023-04-27T16:20:49.349Z,100589.10
2023-04-27T16:23:16.706Z,100590.61
2023-04-27T16:25:43.443Z,100587.23
2023-04-27T16:28:10.232Z,100585.79
2023-04-27T16:30:38.175Z,100583.83
2023-04-27T16:33:05.177Z,100583.80
2023-04-27T16:35:33.509Z,100585.17
2023-04-27T16:38:01.130Z,100585.66
2023-04-27T16:40:27.910Z,100586.83
2023-04-27T16:42:54.569Z,100586.77
2023-04-27T16:45:21.288Z,100584.04
2023-04-27T16:47:48.250Z,100586.81
2023-04-27T16:50:15.254Z,100587.13
2023-04-27T16:52:42.071Z,100581.33
2023-04-27T16:55:09.072Z,100589.16
2023-04-27T16:57:36.466Z,100584.91
2023-04-27T17:00:05.844Z,100585.41
2023-04-27T17:02:32.851Z,100585.90
2023-04-27T17:05:00.992Z,100588.29
2023-04-27T17:07:31.931Z,100588.05
2023-04-27T17:09:59.062Z,100589.41
2023-04-27T17:12:25.795Z,100592.67
2023-04-27T17:14:52.493Z,100592.80
2023-04-27T17:17:19.367Z,100594.31
2023-04-27T17:19:46.297Z,100594.94
2023-04-27T17:22:15.016Z,100588.92
2023-04-27T17:24:41.925Z,100590.94
2023-04-27T17:27:08.946Z,100590.33
2023-04-27T17:29:36.800Z,100589.69
2023-04-27T17:32:04.714Z,100590.82
2023-04-27T17:34:31.639Z,100593.36
2023-04-27T17:36:58.732Z,100594.71
2023-04-27T17:39:25.754Z,100595.84
2023-04-27T17:43:41.157Z,100600.26
2023-04-27T17:46:09.134Z,100598.75
2023-04-27T17:48:36.885Z,100597.06
2023-04-27T17:51:32.801Z,100597.45
2023-04-27T17:54:11.017Z,100598.71
2023-04-27T17:56:42.465Z,100600.37
2023-04-27T20:29:20.637Z,100681.67
2023-04-27T20:31:53.894Z,100680.82
2023-04-27T20:34:20.660Z,100685.48
2023-04-27T20:36:53.040Z,100685.44
2023-04-27T20:43:07.297Z,100688.06
2023-04-27T20:46:01.506Z,100678.70
2023-04-27T20:49:47.211Z,100687.67
2023-04-27T20:52:14.386Z,100690.27
2023-04-27T20:54:41.800Z,100689.48
2023-04-27T20:57:13.176Z,100689.14
2023-04-27T20:59:44.892Z,100695.38
2023-04-27T21:02:11.927Z,100693.96
2023-04-27T21:04:39.531Z,100693.29
2023-04-27T21:07:06.469Z,100692.27
2023-04-27T21:10:13.607Z,100695.68
2023-04-27T21:12:43.781Z,100698.54
2023-04-27T21:15:11.705Z,100697.48
2023-04-27T21:17:50.235Z,100701.80
2023-04-27T21:20:22.844Z,100700.55
2023-04-27T21:22:52.260Z,100699.52
2023-04-27T21:25:19.255Z,100700.89
2023-04-27T21:27:46.621Z,100695.34
2023-04-27T21:30:13.932Z,100695.66
2023-04-27T21:32:40.988Z,100697.00
2023-04-27T21:35:12.302Z,100696.84
2023-04-27T21:37:40.312Z,100698.59
2023-04-27T21:40:08.065Z,100698.86
2023-04-27T21:42:35.761Z,100697.29
2023-04-27T21:45:03.852Z,100694.63
2023-04-27T21:47:31.213Z,100698.90
2023-04-27T21:55:14.151Z,100693.23
2023-04-27T21:58:51.338Z,100691.73
2023-04-27T22:01:00.646Z,100692.27
2023-04-27T22:03:28.606Z,100691.39
2023-04-27T22:05:58.446Z,100688.64
2023-04-27T22:08:25.794Z,100691.27
2023-04-27T22:10:53.984Z,100695.60
2023-04-27T22:13:22.702Z,100691.83
2023-04-27T22:16:20.414Z,100684.77
2023-04-27T22:18:54.310Z,100690.61
2023-04-27T22:21:24.040Z,100686.14
2023-04-27T22:23:50.891Z,100693.16
2023-04-27T22:26:20.704Z,100692.90
2023-04-27T22:28:47.905Z,100693.53
2023-04-27T22:31:14.633Z,100696.05
2023-04-27T22:33:41.362Z,100699.05
2023-04-27T22:36:08.431Z,100696.16
2023-04-27T22:38:35.791Z,100693.77
2023-04-27T22:41:02.553Z,100694.15
2023-04-27T22:43:29.554Z,100694.16
2023-04-27T22:45:56.600Z,100691.60
2023-04-27T22:48:51.892Z,100692.45
2023-04-27T22:51:28.368Z,100691.70
2023-04-27T22:58:41.516Z,100692.41
2023-04-27T23:01:17.682Z,100689.41
2023-04-27T23:03:45.800Z,100695.36
2023-04-27T23:06:16.071Z,100688.64
2023-04-27T23:08:45.379Z,100693.83
2023-04-27T23:11:14.797Z,100696.98
2023-04-27T23:13:41.555Z,100695.65
2023-04-27T23:16:09.328Z,100695.48
2023-04-27T23:18:38.791Z,100696.02
2023-04-27T23:21:14.589Z,100693.60
2023-04-27T23:23:41.494Z,100694.35
2023-04-27T23:26:15.813Z,100693.37
2023-04-27T23:28:46.074Z,100697.68
2023-04-27T23:31:13.739Z,100694.20
2023-04-27T23:33:40.907Z,100697.64
2023-04-27T23:36:07.961Z,100694.33
2023-04-27T23:38:34.696Z,100693.86
2023-04-27T23:41:01.435Z,100699.64
2023-04-27T23:43:28.242Z,100697.63
2023-04-27T23:45:55.378Z,100700.08
2023-04-27T23:48:22.198Z,100700.98
2023-04-27T23:50:48.856Z,100697.41
2023-04-27T23:53:15.556Z,100698.49
2023-04-27T23:55:42.231Z,100697.09
2023-04-27T23:58:08.978Z,100693.20
